18:35
Airports
History
Links
Donate
Help keep this website running!
PayPal
Bitcoin
This page is community maintained. The information is intended for PC simulator navigation or reference.
Always use approved charts for navigation.
5OH0
Alge
Alge (5OH0)
Arlington, Ohio, United States (45814)
4
Lat/Lng:40° 54' 17.19" N / 83° 38' 40.75" W
40.904776 / -83.644653
Elevation:857'ft / 261mMSL
ID / ICAO:5OH0
Runways:1
Longest:18-36
Grass 306m / 1,003ft
Nearby Weather17:53 GMT 2017-09-22
Nearby weather at KFDY, Findlay located 7.5 nautical miles from 5OH0
Altimeter: 30.09
Visibility: 10.0 statute miles
Wind: 5 knots (from 050°)
Temp: 31°c / 88°f
Humidity: 48.9%

METAR: KFDY 221753Z AUTO 05005KT 10SM SCT043 31/19 A3009 RMK AO2 SLP178 T03110194 10322 20206 58009 TSNO

(Powered by phpweather)
Nearby VORs <50NM
Nearby NDBs
Runway 18 / 36
Dimensions:305.8 x 22.9m 1003' x 75'ft
Surface:Grass
Runway 18 [A]Runway 36 [B]
Heading:175°TH 355°TH
Lat:
Lng:
40° 54' 22.11"N
83° 38' 41.32"W
40° 54' 12.27"N
83° 38' 40.18"W
User Notes and Comments
40° 54' 17.19" N / 83° 38' 40.75" W
Distance To
Airport ID:
Nearby Airports
(R) Schaller 3.4 NM
27OH NNW 327°
(R) Lutz 4.7 NM
9OH7 NNE 33°
(R) Ferrell 5.0 NM
9OH8 N
(U) Findlay 7.5 NM
KFDY ( WX ) N 350°
(R) Forest Field 8.6 NM
9OH9 SE 127°
(R) Weaver 9.8 NM
9OH6 NNE 23°
(R) Tong Farm 10.7 NM
95OH ENE 64°
VFR Chart
Flight Planning at SkyVector.com